Time;durP1;ratioP1;P1;durP2;ratioP2;P2;SDS_P1;SDS_P2;PMS_P1;PMS_P2;Temp;Humidity;BMP_temperature;BMP_pressure;BME280_temperature;BME280_humidity;BME280_pressure;Samples;Min_cycle;Max_cycle;Signal;HPM_P1;HPM_P2
2020/12/04 00:00:42;;;;;;;;;;;19.40;33.30;;;;;;491576;240;982;-72
2020/12/04 00:02:44;;;;;;;;;;;19.40;33.30;;;;;;491637;240;1030;-72
2020/12/04 00:04:45;;;;;;;;;;;19.40;33.10;;;;;;491535;240;1054;-72
2020/12/04 00:06:46;;;;;;;;;;;19.40;32.70;;;;;;491660;240;1255;-72
2020/12/04 00:08:48;;;;;;;;;;;19.40;32.50;;;;;;491615;240;1061;-72
2020/12/04 00:10:49;;;;;;;;;;;19.40;32.20;;;;;;491630;240;998;-72
2020/12/04 00:12:50;;;;;;;;;;;19.50;32.10;;;;;;491591;240;952;-72
2020/12/04 00:14:52;;;;;;;;;;;19.40;31.70;;;;;;491550;240;1040;-72
2020/12/04 00:16:53;;;;;;;;;;;19.40;31.60;;;;;;491570;240;1230;-72
2020/12/04 00:18:54;;;;;;;;;;;19.40;31.50;;;;;;491723;240;2199;-72
2020/12/04 00:20:55;;;;;;;;;;;19.40;31.30;;;;;;491703;240;1228;-72
2020/12/04 00:22:57;;;;;;;;;;;19.40;31.20;;;;;;491630;240;1240;-72
2020/12/04 00:24:58;;;;;;;;;;;19.40;31.10;;;;;;491600;240;935;-72
2020/12/04 00:26:59;;;;;;;;;;;19.40;30.90;;;;;;491590;240;1199;-73
2020/12/04 00:29:01;;;;;;;;;;;19.40;30.80;;;;;;491674;240;1061;-72
2020/12/04 00:31:02;;;;;;;;;;;19.40;30.70;;;;;;491587;240;953;-72
2020/12/04 00:33:03;;;;;;;;;;;19.40;30.50;;;;;;491646;240;1116;-72
2020/12/04 00:35:04;;;;;;;;;;;19.40;30.40;;;;;;491660;240;976;-72
2020/12/04 00:37:06;;;;;;;;;;;19.30;30.30;;;;;;491599;240;1293;-72
2020/12/04 00:39:07;;;;;;;;;;;19.40;30.20;;;;;;491628;240;2176;-72
2020/12/04 00:41:08;;;;;;;;;;;19.30;30.20;;;;;;491647;240;989;-72
2020/12/04 00:43:09;;;;;;;;;;;19.40;30.00;;;;;;491618;240;1183;-72
2020/12/04 00:45:11;;;;;;;;;;;19.50;29.90;;;;;;491660;240;980;-72
2020/12/04 00:47:12;;;;;;;;;;;19.60;29.90;;;;;;491658;240;1039;-72
2020/12/04 00:49:13;;;;;;;;;;;19.60;29.70;;;;;;491661;240;956;-73
2020/12/04 00:51:15;;;;;;;;;;;19.60;29.60;;;;;;491618;240;1188;-73
2020/12/04 00:53:16;;;;;;;;;;;19.70;29.60;;;;;;491626;240;1049;-72
2020/12/04 00:55:17;;;;;;;;;;;19.80;29.30;;;;;;491643;240;959;-72
2020/12/04 00:57:18;;;;;;;;;;;19.80;29.30;;;;;;491657;240;1039;-72
2020/12/04 00:59:20;;;;;;;;;;;19.80;29.20;;;;;;491620;240;2184;-72
2020/12/04 01:01:21;;;;;;;;;;;19.90;29.20;;;;;;491590;240;1042;-73
2020/12/04 01:03:22;;;;;;;;;;;19.90;29.00;;;;;;491592;240;962;-72
2020/12/04 01:05:24;;;;;;;;;;;19.90;28.90;;;;;;491562;240;1119;-72
2020/12/04 01:07:25;;;;;;;;;;;19.90;28.90;;;;;;491551;240;1201;-73
2020/12/04 01:09:26;;;;;;;;;;;19.90;28.90;;;;;;491618;240;1011;-72
2020/12/04 01:11:30;;;;;;;;;;;19.90;28.80;;;;;;491644;240;1162;-72
2020/12/04 01:13:29;;;;;;;;;;;19.90;28.80;;;;;;491792;240;2039;-72
2020/12/04 01:15:30;;;;;;;;;;;19.90;28.80;;;;;;491671;240;2357;-72
2020/12/04 01:17:31;;;;;;;;;;;19.90;28.70;;;;;;491561;240;948;-72
2020/12/04 01:19:33;;;;;;;;;;;19.90;28.70;;;;;;491617;240;2185;-72
2020/12/04 01:21:34;;;;;;;;;;;19.90;28.70;;;;;;491621;240;1261;-72
2020/12/04 01:23:35;;;;;;;;;;;19.90;28.60;;;;;;491602;240;1157;-72
2020/12/04 01:25:36;;;;;;;;;;;19.90;28.60;;;;;;491631;240;968;-72
2020/12/04 01:27:38;;;;;;;;;;;19.90;28.50;;;;;;491554;240;1058;-72
2020/12/04 01:29:39;;;;;;;;;;;19.90;28.50;;;;;;491677;240;987;-73
2020/12/04 01:31:40;;;;;;;;;;;20.00;28.40;;;;;;491597;240;1201;-73
2020/12/04 01:33:42;;;;;;;;;;;20.00;28.40;;;;;;491626;240;1041;-72
2020/12/04 01:35:43;;;;;;;;;;;19.90;28.30;;;;;;491575;240;1245;-73
2020/12/04 01:37:44;;;;;;;;;;;20.00;28.30;;;;;;491542;240;1291;-73
2020/12/04 01:39:45;;;;;;;;;;;20.00;28.30;;;;;;491610;240;2192;-72
2020/12/04 01:41:47;;;;;;;;;;;19.90;28.20;;;;;;491676;240;1384;-72
2020/12/04 01:43:48;;;;;;;;;;;19.90;28.20;;;;;;491641;240;1259;-72
2020/12/04 01:45:49;;;;;;;;;;;19.90;28.20;;;;;;491598;240;1128;-72
2020/12/04 01:47:50;;;;;;;;;;;19.90;28.20;;;;;;491630;240;1025;-72
2020/12/04 01:49:52;;;;;;;;;;;19.90;28.10;;;;;;491629;240;1041;-73
2020/12/04 01:51:53;;;;;;;;;;;19.90;28.10;;;;;;491632;240;1278;-73
2020/12/04 01:53:54;;;;;;;;;;;19.90;28.10;;;;;;491688;240;1095;-73
2020/12/04 01:55:56;;;;;;;;;;;19.90;28.10;;;;;;491627;240;925;-73
2020/12/04 01:57:57;;;;;;;;;;;19.80;28.10;;;;;;491664;240;1159;-72
2020/12/04 01:59:58;;;;;;;;;;;19.80;28.10;;;;;;491635;240;2199;-73
2020/12/04 02:01:59;;;;;;;;;;;19.80;28.10;;;;;;491581;240;1119;-72
2020/12/04 02:04:01;;;;;;;;;;;19.80;28.00;;;;;;491723;240;1173;-72
2020/12/04 02:06:02;;;;;;;;;;;19.90;28.00;;;;;;491575;240;952;-72
2020/12/04 02:08:03;;;;;;;;;;;19.90;27.90;;;;;;491595;240;1180;-72
2020/12/04 02:10:04;;;;;;;;;;;19.90;27.90;;;;;;491610;240;1004;-72
2020/12/04 02:12:06;;;;;;;;;;;19.80;27.90;;;;;;491608;240;1242;-73
2020/12/04 02:14:07;;;;;;;;;;;19.90;27.90;;;;;;491611;240;1202;-73
2020/12/04 02:16:08;;;;;;;;;;;19.90;27.90;;;;;;491638;240;988;-73
2020/12/04 02:18:10;;;;;;;;;;;19.80;27.80;;;;;;491714;240;1232;-72
2020/12/04 02:20:11;;;;;;;;;;;19.80;27.90;;;;;;491619;240;2172;-72
2020/12/04 02:22:12;;;;;;;;;;;19.90;27.80;;;;;;491634;240;1258;-72
2020/12/04 02:24:14;;;;;;;;;;;19.80;27.80;;;;;;491725;240;1108;-72
2020/12/04 02:26:15;;;;;;;;;;;19.80;27.80;;;;;;491646;240;976;-72
2020/12/04 02:28:16;;;;;;;;;;;19.90;27.70;;;;;;491700;240;1087;-72
2020/12/04 02:30:17;;;;;;;;;;;19.90;27.70;;;;;;491606;240;949;-73
2020/12/04 02:32:19;;;;;;;;;;;19.80;27.70;;;;;;491568;240;1278;-72
2020/12/04 02:34:20;;;;;;;;;;;19.80;27.70;;;;;;491582;240;1050;-72
2020/12/04 02:36:21;;;;;;;;;;;19.80;27.70;;;;;;491583;240;990;-73
2020/12/04 02:38:22;;;;;;;;;;;19.70;27.70;;;;;;491655;240;1283;-72
2020/12/04 02:40:24;;;;;;;;;;;19.70;27.70;;;;;;491647;240;2195;-73
2020/12/04 02:42:25;;;;;;;;;;;19.70;27.80;;;;;;491586;240;1146;-73
2020/12/04 02:44:26;;;;;;;;;;;19.60;27.70;;;;;;491584;240;1030;-72
2020/12/04 02:46:28;;;;;;;;;;;19.70;27.80;;;;;;491581;240;992;-73
2020/12/04 02:48:29;;;;;;;;;;;19.70;27.70;;;;;;491608;240;1185;-72
2020/12/04 02:50:30;;;;;;;;;;;19.70;27.70;;;;;;491575;240;955;-73
2020/12/04 02:52:31;;;;;;;;;;;19.70;27.60;;;;;;491621;240;1164;-72
2020/12/04 02:54:33;;;;;;;;;;;19.70;27.60;;;;;;491662;240;1141;-73
2020/12/04 02:56:34;;;;;;;;;;;19.70;27.50;;;;;;491674;240;1124;-73
2020/12/04 02:58:35;;;;;;;;;;;19.70;27.50;;;;;;491818;240;1128;-73
2020/12/04 03:00:37;;;;;;;;;;;19.80;27.50;;;;;;491610;240;2184;-73
2020/12/04 03:02:38;;;;;;;;;;;19.80;27.40;;;;;;491597;240;1029;-73
2020/12/04 03:04:39;;;;;;;;;;;19.90;27.40;;;;;;491704;240;947;-72
2020/12/04 03:06:40;;;;;;;;;;;19.80;27.30;;;;;;491563;240;1079;-72
2020/12/04 03:08:42;;;;;;;;;;;19.80;27.40;;;;;;491655;240;1182;-72
2020/12/04 03:10:43;;;;;;;;;;;19.70;27.40;;;;;;491553;240;1083;-72
2020/12/04 03:12:44;;;;;;;;;;;19.70;27.40;;;;;;491557;240;1127;-72
2020/12/04 03:14:46;;;;;;;;;;;19.60;27.40;;;;;;491647;240;1078;-73
2020/12/04 03:16:47;;;;;;;;;;;19.70;27.40;;;;;;491600;240;1421;-73
2020/12/04 03:18:48;;;;;;;;;;;19.70;27.40;;;;;;491644;240;1055;-73
2020/12/04 03:20:49;;;;;;;;;;;19.60;27.30;;;;;;491588;240;2196;-73
2020/12/04 03:22:51;;;;;;;;;;;19.70;27.40;;;;;;491585;240;1099;-73
2020/12/04 03:24:52;;;;;;;;;;;19.70;27.30;;;;;;491601;240;1363;-73
2020/12/04 03:26:53;;;;;;;;;;;19.70;27.30;;;;;;491546;240;1162;-73
2020/12/04 03:28:54;;;;;;;;;;;19.70;27.30;;;;;;491598;240;1057;-72
2020/12/04 03:30:56;;;;;;;;;;;19.70;27.20;;;;;;491584;240;1123;-72
2020/12/04 03:32:57;;;;;;;;;;;19.70;27.20;;;;;;491597;240;1102;-72
2020/12/04 03:34:58;;;;;;;;;;;19.70;27.30;;;;;;491613;240;1026;-73
2020/12/04 03:37:00;;;;;;;;;;;19.80;27.30;;;;;;491611;240;1057;-73
2020/12/04 03:39:01;;;;;;;;;;;19.70;27.10;;;;;;491615;240;1177;-72
2020/12/04 03:41:02;;;;;;;;;;;19.80;27.00;;;;;;491528;240;2176;-72
2020/12/04 03:43:03;;;;;;;;;;;19.90;27.10;;;;;;491570;240;1056;-72
2020/12/04 03:45:05;;;;;;;;;;;19.90;27.00;;;;;;491590;240;967;-72
2020/12/04 03:47:06;;;;;;;;;;;19.90;26.90;;;;;;491589;240;1223;-73
2020/12/04 03:49:07;;;;;;;;;;;20.00;26.90;;;;;;491598;240;1086;-73
2020/12/04 03:51:09;;;;;;;;;;;20.00;26.90;;;;;;491603;240;1020;-72
2020/12/04 03:53:10;;;;;;;;;;;20.00;26.90;;;;;;491699;240;1176;-72
2020/12/04 03:55:11;;;;;;;;;;;20.00;26.90;;;;;;491631;240;963;-72
2020/12/04 03:57:12;;;;;;;;;;;20.10;26.80;;;;;;491656;240;974;-72
2020/12/04 03:59:14;;;;;;;;;;;20.10;26.90;;;;;;491658;240;963;-73
2020/12/04 04:01:15;;;;;;;;;;;20.10;26.80;;;;;;491700;240;2175;-73
2020/12/04 04:03:16;;;;;;;;;;;20.10;26.70;;;;;;491631;240;961;-72
2020/12/04 04:05:18;;;;;;;;;;;20.10;26.70;;;;;;491634;240;978;-72
2020/12/04 04:07:19;;;;;;;;;;;20.10;26.70;;;;;;491584;240;972;-72
2020/12/04 04:09:20;;;;;;;;;;;20.10;26.60;;;;;;491604;240;1262;-72
2020/12/04 04:11:21;;;;;;;;;;;20.10;26.70;;;;;;491603;240;939;-72
2020/12/04 04:13:23;;;;;;;;;;;20.10;26.70;;;;;;491624;240;956;-73
2020/12/04 04:15:24;;;;;;;;;;;20.10;26.70;;;;;;491643;240;1038;-73
2020/12/04 04:17:25;;;;;;;;;;;20.10;26.70;;;;;;491628;240;938;-73
2020/12/04 04:19:26;;;;;;;;;;;20.10;26.60;;;;;;491637;240;1234;-72
2020/12/04 04:21:28;;;;;;;;;;;20.10;26.60;;;;;;491624;240;2179;-72
2020/12/04 04:23:29;;;;;;;;;;;20.10;26.70;;;;;;491696;240;1249;-72
2020/12/04 04:25:30;;;;;;;;;;;20.20;26.70;;;;;;491628;240;1158;-72
2020/12/04 04:27:32;;;;;;;;;;;20.10;26.60;;;;;;491642;240;943;-72
2020/12/04 04:29:33;;;;;;;;;;;20.10;26.60;;;;;;491588;240;932;-73
2020/12/04 04:31:34;;;;;;;;;;;20.10;26.60;;;;;;491573;240;1548;-72
2020/12/04 04:33:35;;;;;;;;;;;20.20;26.60;;;;;;491730;240;1176;-72
2020/12/04 04:35:37;;;;;;;;;;;20.20;26.60;;;;;;491665;240;981;-72
2020/12/04 04:37:38;;;;;;;;;;;20.10;26.50;;;;;;491598;240;965;-72
2020/12/04 04:39:42;;;;;;;;;;;20.10;26.60;;;;;;491642;240;1208;-72
2020/12/04 04:41:41;;;;;;;;;;;20.10;26.60;;;;;;491736;240;2167;-72
2020/12/04 04:43:42;;;;;;;;;;;20.20;26.50;;;;;;491644;240;1132;-72
2020/12/04 04:45:43;;;;;;;;;;;20.20;26.50;;;;;;491572;240;953;-72
2020/12/04 04:47:44;;;;;;;;;;;20.20;26.50;;;;;;491630;240;1290;-73
2020/12/04 04:49:46;;;;;;;;;;;20.20;26.50;;;;;;491607;240;967;-72
2020/12/04 04:51:47;;;;;;;;;;;20.30;26.50;;;;;;491667;240;1185;-72
2020/12/04 04:53:48;;;;;;;;;;;20.30;26.50;;;;;;491627;240;1164;-72
2020/12/04 04:55:51;;;;;;;;;;;20.20;26.50;;;;;;491658;240;1053;-72
2020/12/04 04:57:51;;;;;;;;;;;20.20;26.50;;;;;;491628;240;2282;-72
2020/12/04 04:59:52;;;;;;;;;;;20.20;26.50;;;;;;491618;240;1047;-72
2020/12/04 05:01:53;;;;;;;;;;;20.30;26.50;;;;;;491550;240;2184;-72
2020/12/04 05:03:55;;;;;;;;;;;20.30;26.50;;;;;;491592;240;947;-72
2020/12/04 05:05:56;;;;;;;;;;;20.30;26.50;;;;;;491610;240;935;-72
2020/12/04 05:07:57;;;;;;;;;;;20.30;26.40;;;;;;491557;240;1083;-72
2020/12/04 05:09:58;;;;;;;;;;;20.30;26.40;;;;;;491559;240;1322;-72
2020/12/04 05:12:01;;;;;;;;;;;20.20;26.40;;;;;;491502;240;956;-72
2020/12/04 05:14:02;;;;;;;;;;;20.30;26.40;;;;;;491788;240;1133;-72
2020/12/04 05:16:03;;;;;;;;;;;20.20;26.40;;;;;;491598;240;952;-72
2020/12/04 05:18:06;;;;;;;;;;;20.20;26.60;;;;;;491547;240;1115;-72
2020/12/04 05:20:07;;;;;;;;;;;20.10;26.60;;;;;;491601;240;1060;-72
2020/12/04 05:22:08;;;;;;;;;;;20.00;26.60;;;;;;491582;240;1056;-72
2020/12/04 05:24:10;;;;;;;;;;;20.10;26.60;;;;;;491440;240;1155;-72
2020/12/04 05:26:11;;;;;;;;;;;20.10;26.60;;;;;;491612;240;985;-72
2020/12/04 05:28:12;;;;;;;;;;;20.00;26.60;;;;;;491459;240;1041;-72
2020/12/04 05:30:13;;;;;;;;;;;20.00;26.60;;;;;;491455;240;980;-72
2020/12/04 05:32:15;;;;;;;;;;;19.80;26.70;;;;;;491449;240;991;-72
2020/12/04 05:34:16;;;;;;;;;;;19.80;26.80;;;;;;491551;240;1058;-72
2020/12/04 05:36:17;;;;;;;;;;;19.80;26.90;;;;;;491512;240;1064;-72
2020/12/04 05:38:18;;;;;;;;;;;19.80;27.00;;;;;;491320;240;1039;-72
2020/12/04 05:40:20;;;;;;;;;;;19.80;27.00;;;;;;491421;240;2179;-72
2020/12/04 05:42:21;;;;;;;;;;;19.70;27.00;;;;;;491330;240;948;-72
2020/12/04 05:44:22;;;;;;;;;;;19.70;27.00;;;;;;491433;240;996;-72
2020/12/04 05:46:24;;;;;;;;;;;19.70;27.00;;;;;;491498;240;1020;-72
2020/12/04 05:48:26;;;;;;;;;;;19.80;27.00;;;;;;491403;240;960;-72
2020/12/04 05:50:28;;;;;;;;;;;19.70;27.00;;;;;;491357;240;1024;-72
2020/12/04 05:52:29;;;;;;;;;;;19.70;27.10;;;;;;491299;240;1002;-72
2020/12/04 05:54:30;;;;;;;;;;;19.60;27.00;;;;;;491329;240;1191;-72
2020/12/04 05:56:32;;;;;;;;;;;19.50;27.10;;;;;;491317;240;1142;-72
2020/12/04 05:58:34;;;;;;;;;;;19.50;27.20;;;;;;491386;240;992;-72
2020/12/04 06:00:35;;;;;;;;;;;19.40;27.30;;;;;;491387;240;2184;-72
2020/12/04 06:02:38;;;;;;;;;;;19.50;27.30;;;;;;491319;240;1097;-72
2020/12/04 06:04:37;;;;;;;;;;;19.60;27.30;;;;;;491522;240;1924;-72
2020/12/04 06:06:39;;;;;;;;;;;19.50;27.30;;;;;;491428;240;1080;-72
2020/12/04 06:08:40;;;;;;;;;;;19.50;27.30;;;;;;491420;240;1113;-72
2020/12/04 06:10:41;;;;;;;;;;;19.50;27.30;;;;;;491408;240;1290;-72
2020/12/04 06:12:42;;;;;;;;;;;19.50;27.30;;;;;;491449;240;1140;-72
2020/12/04 06:14:44;;;;;;;;;;;19.60;27.40;;;;;;491461;240;1184;-72
2020/12/04 06:16:45;;;;;;;;;;;19.50;27.40;;;;;;491412;240;1024;-72
2020/12/04 06:18:46;;;;;;;;;;;19.50;27.50;;;;;;491288;240;1063;-72
2020/12/04 06:20:48;;;;;;;;;;;19.40;27.50;;;;;;490912;240;2180;-72
2020/12/04 06:22:49;;;;;;;;;;;19.40;27.50;;;;;;491126;240;2393;-72
2020/12/04 06:24:50;;;;;;;;;;;19.40;27.50;;;;;;491321;240;1182;-72
2020/12/04 06:26:51;;;;;;;;;;;19.40;27.60;;;;;;491343;240;1055;-72
2020/12/04 06:28:53;;;;;;;;;;;19.40;27.50;;;;;;491349;240;958;-72
2020/12/04 06:30:54;;;;;;;;;;;19.40;27.60;;;;;;491238;240;982;-72
2020/12/04 06:32:55;;;;;;;;;;;19.40;27.60;;;;;;491253;240;978;-72
2020/12/04 06:34:57;;;;;;;;;;;19.40;27.60;;;;;;491151;240;1011;-72
2020/12/04 06:36:58;;;;;;;;;;;19.40;27.60;;;;;;491155;240;1077;-72
2020/12/04 06:38:59;;;;;;;;;;;19.30;27.70;;;;;;491182;240;1137;-72
2020/12/04 06:41:00;;;;;;;;;;;19.30;27.70;;;;;;491278;240;2184;-72
2020/12/04 06:43:02;;;;;;;;;;;19.30;27.80;;;;;;491176;240;966;-72
2020/12/04 06:45:03;;;;;;;;;;;19.30;27.80;;;;;;491023;240;1011;-72
2020/12/04 06:47:05;;;;;;;;;;;19.40;27.80;;;;;;491125;240;1083;-72
2020/12/04 06:49:06;;;;;;;;;;;19.40;27.70;;;;;;491129;240;2134;-72
2020/12/04 06:51:07;;;;;;;;;;;19.40;27.80;;;;;;491146;240;1035;-72
2020/12/04 06:53:09;;;;;;;;;;;19.40;27.80;;;;;;491112;240;960;-72
2020/12/04 06:55:10;;;;;;;;;;;19.40;27.70;;;;;;491122;240;1122;-72
2020/12/04 06:57:11;;;;;;;;;;;19.40;27.70;;;;;;491024;240;1057;-72
2020/12/04 06:59:12;;;;;;;;;;;19.40;27.70;;;;;;491024;240;1026;-72
2020/12/04 07:01:14;;;;;;;;;;;19.40;27.80;;;;;;490904;240;2199;-72
2020/12/04 07:03:15;;;;;;;;;;;19.50;27.80;;;;;;491036;240;987;-72
2020/12/04 07:05:16;;;;;;;;;;;19.50;27.80;;;;;;491067;240;1133;-72
2020/12/04 07:07:18;;;;;;;;;;;19.40;27.70;;;;;;490951;240;976;-72
2020/12/04 07:09:19;;;;;;;;;;;19.50;27.80;;;;;;491084;240;1064;-72
2020/12/04 07:11:20;;;;;;;;;;;19.60;30.70;;;;;;491185;240;1191;-72
2020/12/04 07:13:21;;;;;;;;;;;19.60;33.30;;;;;;491168;240;1193;-72
2020/12/04 07:15:23;;;;;;;;;;;19.60;35.20;;;;;;491152;240;1012;-72
2020/12/04 07:17:25;;;;;;;;;;;19.60;37.40;;;;;;491079;240;1029;-72
2020/12/04 07:19:26;;;;;;;;;;;19.60;39.30;;;;;;490963;240;1067;-72
2020/12/04 07:21:28;;;;;;;;;;;19.70;38.30;;;;;;490880;240;2199;-72
2020/12/04 07:23:29;;;;;;;;;;;19.70;38.80;;;;;;490890;240;1066;-72
2020/12/04 07:25:30;;;;;;;;;;;19.60;40.80;;;;;;490947;240;1193;-72
2020/12/04 07:27:32;;;;;;;;;;;19.60;42.00;;;;;;490891;240;1147;-72
2020/12/04 07:29:33;;;;;;;;;;;19.60;43.40;;;;;;491169;240;1038;-72
2020/12/04 07:31:34;;;;;;;;;;;19.50;43.50;;;;;;491060;240;1043;-72
2020/12/04 07:33:36;;;;;;;;;;;19.50;42.20;;;;;;490961;240;1040;-72
2020/12/04 07:35:37;;;;;;;;;;;19.50;41.60;;;;;;491007;240;1120;-72
2020/12/04 07:37:39;;;;;;;;;;;19.50;41.30;;;;;;491166;240;1168;-72
2020/12/04 07:39:40;;;;;;;;;;;19.40;40.60;;;;;;490987;240;1039;-72
2020/12/04 07:41:41;;;;;;;;;;;19.40;40.20;;;;;;490965;240;2179;-72
2020/12/04 07:43:43;;;;;;;;;;;19.50;39.50;;;;;;491041;240;1087;-73
2020/12/04 07:45:44;;;;;;;;;;;19.60;38.90;;;;;;490972;240;2060;-72
2020/12/04 07:47:45;;;;;;;;;;;19.60;38.40;;;;;;490948;240;1174;-72
2020/12/04 07:49:46;;;;;;;;;;;19.60;38.10;;;;;;490903;240;972;-72
2020/12/04 07:51:47;;;;;;;;;;;19.70;37.70;;;;;;490946;240;1192;-73
2020/12/04 07:53:49;;;;;;;;;;;19.70;37.20;;;;;;490940;240;1038;-72
2020/12/04 07:55:50;;;;;;;;;;;19.80;36.80;;;;;;490983;240;1373;-72
2020/12/04 07:57:51;;;;;;;;;;;19.80;36.30;;;;;;491026;240;1077;-72
2020/12/04 07:59:53;;;;;;;;;;;19.80;36.00;;;;;;490856;240;1087;-72
2020/12/04 08:01:54;;;;;;;;;;;19.80;35.80;;;;;;490895;240;2191;-72
2020/12/04 08:03:55;;;;;;;;;;;19.70;35.70;;;;;;490855;240;1048;-72
2020/12/04 08:05:56;;;;;;;;;;;19.70;35.40;;;;;;490748;240;1028;-72
2020/12/04 08:07:58;;;;;;;;;;;19.60;35.30;;;;;;490706;240;996;-72
2020/12/04 08:09:59;;;;;;;;;;;19.60;35.20;;;;;;490838;240;970;-72
2020/12/04 08:12:01;;;;;;;;;;;19.50;35.00;;;;;;490789;240;1315;-72
2020/12/04 08:14:02;;;;;;;;;;;19.50;35.00;;;;;;490771;240;1061;-72
2020/12/04 08:16:03;;;;;;;;;;;19.40;34.80;;;;;;490709;240;1032;-72
2020/12/04 08:18:04;;;;;;;;;;;19.40;34.80;;;;;;490670;240;1059;-72
2020/12/04 08:20:06;;;;;;;;;;;19.40;34.80;;;;;;490745;240;1028;-72
2020/12/04 08:22:07;;;;;;;;;;;19.40;34.70;;;;;;490678;240;2195;-72
2020/12/04 08:24:08;;;;;;;;;;;19.40;34.50;;;;;;490850;240;1042;-72
2020/12/04 08:26:10;;;;;;;;;;;19.50;34.10;;;;;;490883;240;1177;-72
2020/12/04 08:28:11;;;;;;;;;;;19.60;34.30;;;;;;490982;240;1211;-72
2020/12/04 08:30:16;;;;;;;;;;;19.50;34.50;;;;;;490877;240;1095;-72
2020/12/04 08:32:14;;;;;;;;;;;19.50;34.60;;;;;;490892;240;2189;-72
2020/12/04 08:34:16;;;;;;;;;;;19.50;34.60;;;;;;490948;240;1102;-72
2020/12/04 08:36:17;;;;;;;;;;;19.50;34.70;;;;;;490871;240;1027;-72
2020/12/04 08:38:19;;;;;;;;;;;19.50;34.80;;;;;;490863;240;1276;-72
2020/12/04 08:40:20;;;;;;;;;;;19.50;34.90;;;;;;490909;240;2042;-72
2020/12/04 08:42:21;;;;;;;;;;;19.50;34.90;;;;;;490879;240;2160;-72
2020/12/04 08:44:22;;;;;;;;;;;19.50;34.90;;;;;;490716;240;1074;-72
2020/12/04 08:46:26;;;;;;;;;;;19.50;35.00;;;;;;490812;240;1107;-72
2020/12/04 08:48:25;;;;;;;;;;;19.60;35.10;;;;;;490731;240;2144;-72
2020/12/04 08:50:26;;;;;;;;;;;19.60;35.10;;;;;;490769;240;1052;-72
2020/12/04 08:52:28;;;;;;;;;;;19.60;35.30;;;;;;490767;240;1061;-72
2020/12/04 08:54:29;;;;;;;;;;;19.50;35.40;;;;;;490904;240;1130;-72
2020/12/04 08:56:30;;;;;;;;;;;19.50;35.60;;;;;;490870;240;1619;-72
2020/12/04 08:58:32;;;;;;;;;;;19.50;35.70;;;;;;490959;240;1176;-72
2020/12/04 09:00:33;;;;;;;;;;;19.50;35.70;;;;;;490747;240;1043;-72
2020/12/04 09:02:34;;;;;;;;;;;19.50;35.80;;;;;;490741;240;2183;-72
2020/12/04 09:04:36;;;;;;;;;;;19.50;35.90;;;;;;490859;240;1052;-72
2020/12/04 09:06:37;;;;;;;;;;;19.50;36.00;;;;;;490957;240;1038;-72
2020/12/04 09:08:38;;;;;;;;;;;19.50;36.00;;;;;;490826;240;1044;-72
2020/12/04 09:10:40;;;;;;;;;;;19.50;35.40;;;;;;490622;240;1120;-72
2020/12/04 09:12:41;;;;;;;;;;;19.50;36.10;;;;;;490570;240;1131;-72
2020/12/04 09:14:42;;;;;;;;;;;19.50;36.20;;;;;;490721;240;1053;-72
2020/12/04 09:16:43;;;;;;;;;;;19.60;36.20;;;;;;490668;240;1201;-72
2020/12/04 09:18:45;;;;;;;;;;;19.50;36.10;;;;;;490667;240;1131;-72
2020/12/04 09:20:46;;;;;;;;;;;19.50;36.20;;;;;;490626;240;1085;-72
2020/12/04 09:22:47;;;;;;;;;;;19.50;36.20;;;;;;490540;240;2176;-72
2020/12/04 09:24:49;;;;;;;;;;;19.60;36.20;;;;;;490752;240;956;-73
2020/12/04 09:26:50;;;;;;;;;;;19.60;36.10;;;;;;490782;240;1014;-72
2020/12/04 09:28:51;;;;;;;;;;;19.60;35.90;;;;;;490719;240;1077;-72
2020/12/04 09:30:53;;;;;;;;;;;19.60;36.10;;;;;;490741;240;999;-72
2020/12/04 09:32:54;;;;;;;;;;;19.60;36.10;;;;;;490729;240;1027;-72
2020/12/04 09:34:55;;;;;;;;;;;19.60;36.10;;;;;;490716;240;1089;-72
2020/12/04 09:36:56;;;;;;;;;;;19.60;36.00;;;;;;490772;240;993;-72
2020/12/04 09:38:58;;;;;;;;;;;19.70;35.90;;;;;;490768;240;1024;-73
2020/12/04 09:40:59;;;;;;;;;;;19.60;35.90;;;;;;490744;240;1032;-72
2020/12/04 09:43:00;;;;;;;;;;;19.60;35.70;;;;;;490722;240;2184;-72
2020/12/04 09:45:01;;;;;;;;;;;19.80;35.80;;;;;;490544;240;1096;-72
2020/12/04 09:47:03;;;;;;;;;;;19.80;35.80;;;;;;490573;240;1305;-72
2020/12/04 09:49:04;;;;;;;;;;;19.80;35.70;;;;;;490561;240;1102;-72
2020/12/04 09:51:05;;;;;;;;;;;19.80;35.70;;;;;;490563;240;1048;-72
2020/12/04 09:53:06;;;;;;;;;;;19.80;35.60;;;;;;490558;240;1118;-72
2020/12/04 09:55:08;;;;;;;;;;;19.80;35.70;;;;;;490932;240;1035;-72
2020/12/04 09:57:09;;;;;;;;;;;19.80;35.10;;;;;;490857;240;1189;-72
2020/12/04 09:59:10;;;;;;;;;;;19.90;35.70;;;;;;490738;240;1179;-73
2020/12/04 10:01:12;;;;;;;;;;;20.00;35.70;;;;;;490549;240;1054;-72
2020/12/04 10:03:13;;;;;;;;;;;20.10;35.60;;;;;;490544;240;2202;-72
2020/12/04 10:05:14;;;;;;;;;;;20.10;35.50;;;;;;490734;240;1060;-72
2020/12/04 10:07:15;;;;;;;;;;;20.10;35.40;;;;;;490683;240;1292;-72
2020/12/04 10:09:17;;;;;;;;;;;20.10;35.50;;;;;;490761;240;1080;-72
2020/12/04 10:11:18;;;;;;;;;;;20.10;35.40;;;;;;490774;240;1253;-72
2020/12/04 10:13:19;;;;;;;;;;;20.10;35.40;;;;;;490760;240;1272;-72
2020/12/04 10:15:21;;;;;;;;;;;20.10;35.50;;;;;;490625;240;1118;-72
2020/12/04 10:17:22;;;;;;;;;;;20.10;35.50;;;;;;490787;240;1207;-72
2020/12/04 10:19:23;;;;;;;;;;;20.10;35.40;;;;;;490721;240;1072;-72
2020/12/04 10:21:25;;;;;;;;;;;20.10;35.40;;;;;;490904;240;1148;-72
2020/12/04 10:23:26;;;;;;;;;;;20.00;35.40;;;;;;490697;240;2180;-72
2020/12/04 10:25:27;;;;;;;;;;;20.00;35.40;;;;;;490841;240;1171;-72
2020/12/04 10:27:29;;;;;;;;;;;20.00;35.50;;;;;;490938;240;1302;-72
2020/12/04 10:29:30;;;;;;;;;;;20.00;35.30;;;;;;490727;240;1108;-72
2020/12/04 10:31:31;;;;;;;;;;;20.00;35.20;;;;;;490682;240;1108;-72
2020/12/04 10:33:32;;;;;;;;;;;20.00;35.20;;;;;;490719;240;1287;-72
2020/12/04 10:35:34;;;;;;;;;;;20.00;35.20;;;;;;490581;240;1031;-72
2020/12/04 10:37:35;;;;;;;;;;;19.90;35.20;;;;;;490639;240;1092;-72
2020/12/04 10:39:36;;;;;;;;;;;20.00;35.10;;;;;;490782;240;1169;-72
2020/12/04 10:41:38;;;;;;;;;;;20.10;35.10;;;;;;490752;240;1296;-72
2020/12/04 10:43:39;;;;;;;;;;;20.00;35.10;;;;;;490698;240;2192;-72
2020/12/04 10:45:40;;;;;;;;;;;20.00;35.20;;;;;;490627;240;1113;-72
2020/12/04 10:47:41;;;;;;;;;;;20.10;34.70;;;;;;490621;240;1058;-72
2020/12/04 10:49:43;;;;;;;;;;;20.10;35.10;;;;;;491003;240;1166;-72
2020/12/04 10:51:44;;;;;;;;;;;20.10;35.00;;;;;;490865;240;974;-72
2020/12/04 10:53:45;;;;;;;;;;;20.10;35.20;;;;;;490826;240;1277;-72
2020/12/04 10:55:46;;;;;;;;;;;20.10;35.20;;;;;;490635;240;1330;-72
2020/12/04 10:57:48;;;;;;;;;;;20.10;35.10;;;;;;490629;240;1068;-73
2020/12/04 10:59:49;;;;;;;;;;;20.20;35.10;;;;;;490882;240;1270;-72
2020/12/04 11:01:55;;;;;;;;;;;20.20;35.00;;;;;;490740;240;1033;-72
2020/12/04 11:06:11;;;;;;;;;;;20.30;35.10;;;;;;490657;242;1094;-72
2020/12/04 11:08:13;;;;;;;;;;;20.40;34.90;;;;;;490623;240;1029;-72
2020/12/04 11:10:14;;;;;;;;;;;20.50;34.90;;;;;;490937;240;940;-72
2020/12/04 11:12:15;;;;;;;;;;;20.50;34.90;;;;;;490939;240;1085;-72
2020/12/04 11:14:16;;;;;;;;;;;20.50;34.80;;;;;;490749;240;1175;-73
2020/12/04 11:16:18;;;;;;;;;;;20.50;34.90;;;;;;490528;240;1015;-72
2020/12/04 11:18:19;;;;;;;;;;;20.60;34.90;;;;;;490670;240;999;-72
2020/12/04 11:20:20;;;;;;;;;;;20.60;35.00;;;;;;490885;240;1070;-72
2020/12/04 11:22:22;;;;;;;;;;;20.60;35.10;;;;;;490753;240;2184;-72
2020/12/04 11:24:23;;;;;;;;;;;20.60;35.00;;;;;;490784;240;1042;-72
2020/12/04 11:26:24;;;;;;;;;;;20.60;35.00;;;;;;490908;240;1054;-72
2020/12/04 11:28:25;;;;;;;;;;;20.60;35.10;;;;;;490878;240;1307;-72
2020/12/04 11:30:27;;;;;;;;;;;20.60;35.10;;;;;;490864;240;1130;-72
2020/12/04 11:32:28;;;;;;;;;;;20.60;35.00;;;;;;490852;240;1062;-72
2020/12/04 11:34:29;;;;;;;;;;;20.70;34.70;;;;;;490795;240;1163;-72
2020/12/04 11:36:31;;;;;;;;;;;20.60;35.10;;;;;;490622;241;1168;-72
2020/12/04 11:38:32;;;;;;;;;;;20.50;35.20;;;;;;490763;240;1201;-72
2020/12/04 11:40:33;;;;;;;;;;;20.40;35.20;;;;;;490811;240;1108;-73
2020/12/04 11:42:34;;;;;;;;;;;20.20;35.40;;;;;;490718;240;2168;-72
2020/12/04 11:44:36;;;;;;;;;;;20.10;35.40;;;;;;490954;240;1246;-72
2020/12/04 11:46:37;;;;;;;;;;;20.10;35.40;;;;;;490929;240;1019;-72
2020/12/04 11:48:39;;;;;;;;;;;20.00;35.50;;;;;;490874;240;1066;-72
2020/12/04 11:50:40;;;;;;;;;;;20.00;35.40;;;;;;490986;240;1045;-72
2020/12/04 11:52:41;;;;;;;;;;;20.00;35.40;;;;;;490736;240;972;-72
2020/12/04 11:54:42;;;;;;;;;;;20.00;35.40;;;;;;490836;240;1197;-72
2020/12/04 11:56:46;;;;;;;;;;;19.90;35.30;;;;;;490822;240;1065;-72
2020/12/04 11:58:47;;;;;;;;;;;19.90;35.30;;;;;;490756;240;1992;-72
2020/12/04 12:00:47;;;;;;;;;;;20.00;35.10;;;;;;490659;240;1282;-72